createdAt,value
2022-10-08T00:01:03.017Z,20.30
2022-10-08T00:03:31.469Z,20.30
2022-10-08T00:06:04.139Z,20.20
2022-10-08T00:08:32.248Z,20.20
2022-10-08T00:11:00.816Z,20.30
2022-10-08T00:13:28.870Z,20.30
2022-10-08T00:15:56.838Z,20.30
2022-10-08T00:18:23.958Z,20.30
2022-10-08T00:20:51.276Z,20.20
2022-10-08T00:23:18.354Z,20.20
2022-10-08T00:25:45.506Z,20.20
2022-10-08T00:28:13.806Z,20.20
2022-10-08T00:30:41.442Z,20.20
2022-10-08T00:33:08.800Z,20.20
2022-10-08T00:35:36.636Z,20.20
2022-10-08T00:38:03.777Z,20.20
2022-10-08T00:40:30.853Z,20.20
2022-10-08T00:42:59.703Z,20.20
2022-10-08T00:45:26.881Z,20.20
2022-10-08T00:47:57.830Z,20.20
2022-10-08T00:50:33.390Z,20.10
2022-10-08T00:53:01.960Z,20.10
2022-10-08T00:55:29.620Z,20.10
2022-10-08T00:58:01.098Z,20.10
2022-10-08T01:00:29.227Z,20.10
2022-10-08T01:02:56.393Z,20.10
2022-10-08T01:05:43.649Z,20.10
2022-10-08T01:08:16.021Z,20.10
2022-10-08T01:10:51.524Z,20.10
2022-10-08T01:13:41.821Z,20.10
2022-10-08T01:16:21.088Z,20.10
2022-10-08T01:18:52.679Z,20.10
2022-10-08T01:21:43.345Z,20.10
2022-10-08T01:24:19.505Z,20.00
2022-10-08T01:26:52.281Z,20.10
2022-10-08T01:29:24.798Z,20.00
2022-10-08T01:31:54.120Z,20.00
2022-10-08T01:34:30.642Z,20.00
2022-10-08T01:36:58.584Z,20.00
2022-10-08T01:39:27.994Z,20.00
2022-10-08T01:41:58.317Z,20.00
2022-10-08T01:44:33.629Z,20.00
2022-10-08T01:47:02.241Z,20.00
2022-10-08T01:49:33.042Z,20.00
2022-10-08T01:52:04.223Z,20.00
2022-10-08T01:54:32.501Z,20.00
2022-10-08T01:57:01.130Z,20.00
2022-10-08T01:59:32.876Z,20.00
2022-10-08T02:02:00.129Z,20.00
2022-10-08T02:04:35.146Z,20.00
2022-10-08T02:07:07.527Z,19.90
2022-10-08T02:09:38.296Z,20.00
2022-10-08T02:12:05.405Z,20.00
2022-10-08T02:14:33.928Z,20.00
2022-10-08T02:17:17.250Z,20.00
2022-10-08T02:19:52.965Z,19.90
2022-10-08T02:22:21.889Z,19.90
2022-10-08T02:24:52.593Z,19.90
2022-10-08T02:27:25.846Z,19.90
2022-10-08T02:30:08.068Z,19.90
2022-10-08T02:32:37.004Z,19.90
2022-10-08T02:35:11.952Z,19.90
2022-10-08T02:37:42.860Z,19.90
2022-10-08T02:40:11.109Z,19.90
2022-10-08T02:42:40.468Z,19.90
2022-10-08T02:45:18.773Z,19.90
2022-10-08T02:47:47.882Z,19.90
2022-10-08T02:50:18.130Z,19.90
2022-10-08T02:52:46.289Z,19.90
2022-10-08T02:55:32.303Z,19.80
2022-10-08T02:58:01.574Z,19.80
2022-10-08T03:00:33.781Z,19.80
2022-10-08T03:03:21.206Z,19.80
2022-10-08T03:05:48.881Z,19.80
2022-10-08T03:08:16.370Z,19.80
2022-10-08T03:10:43.916Z,19.80
2022-10-08T03:13:12.152Z,19.80
2022-10-08T03:15:40.318Z,19.80
2022-10-08T03:18:08.446Z,19.80
2022-10-08T03:20:40.882Z,19.80
2022-10-08T03:23:07.896Z,19.80
2022-10-08T03:25:34.913Z,19.80
2022-10-08T03:28:01.996Z,19.80
2022-10-08T03:30:29.140Z,19.80
2022-10-08T03:32:56.220Z,19.70
2022-10-08T03:35:23.375Z,19.70
2022-10-08T03:37:52.002Z,19.80
2022-10-08T03:40:19.445Z,19.70
2022-10-08T03:42:46.826Z,19.70
2022-10-08T03:45:14.071Z,19.70
2022-10-08T03:47:41.058Z,19.80
2022-10-08T03:50:08.287Z,19.80
2022-10-08T03:52:35.320Z,19.70
2022-10-08T03:55:02.335Z,19.70
2022-10-08T03:57:29.313Z,19.80
2022-10-08T03:59:56.326Z,19.70
2022-10-08T04:02:23.427Z,19.80
2022-10-08T04:04:50.476Z,19.80
2022-10-08T04:07:17.473Z,19.80
2022-10-08T04:09:44.434Z,19.90
2022-10-08T04:12:11.388Z,20.10
2022-10-08T04:14:38.343Z,20.50
2022-10-08T04:17:05.464Z,20.80
2022-10-08T04:19:32.428Z,21.10
2022-10-08T04:21:59.431Z,21.20
2022-10-08T04:24:26.418Z,21.50
2022-10-08T04:26:53.389Z,21.60
2022-10-08T04:29:20.441Z,21.70
2022-10-08T04:31:47.482Z,21.80
2022-10-08T04:34:14.460Z,21.90
2022-10-08T04:36:41.605Z,22.00
2022-10-08T04:39:08.666Z,22.00
2022-10-08T04:41:35.685Z,22.10
2022-10-08T04:44:02.784Z,22.20
2022-10-08T04:46:29.939Z,22.20
2022-10-08T04:48:57.470Z,22.20
2022-10-08T04:51:25.410Z,22.20
2022-10-08T04:53:52.809Z,22.20
2022-10-08T04:56:23.972Z,22.10
2022-10-08T04:58:51.396Z,22.10
2022-10-08T05:01:19.461Z,22.10
2022-10-08T05:03:48.029Z,22.10
2022-10-08T05:06:16.412Z,22.00
2022-10-08T05:08:43.737Z,22.00
2022-10-08T05:11:11.357Z,21.90
2022-10-08T05:13:38.417Z,21.90
2022-10-08T05:16:06.736Z,21.90
2022-10-08T05:18:34.527Z,21.80
2022-10-08T05:21:02.430Z,21.80
2022-10-08T05:23:29.458Z,21.80
2022-10-08T05:25:56.489Z,21.70
2022-10-08T05:28:23.706Z,21.70
2022-10-08T05:30:50.855Z,21.70
2022-10-08T05:33:17.912Z,21.70
2022-10-08T05:35:44.925Z,21.60
2022-10-08T05:38:12.834Z,21.60
2022-10-08T05:40:40.301Z,21.60
2022-10-08T05:43:07.352Z,21.50
2022-10-08T05:45:34.389Z,21.50
2022-10-08T05:48:01.579Z,21.50
2022-10-08T05:50:28.611Z,21.40
2022-10-08T05:52:55.619Z,21.40
2022-10-08T05:55:22.724Z,21.40
2022-10-08T05:57:49.771Z,21.30
2022-10-08T06:00:16.945Z,21.30
2022-10-08T06:02:44.052Z,21.30
2022-10-08T06:05:11.286Z,21.30
2022-10-08T06:07:38.302Z,21.20
2022-10-08T06:10:05.651Z,21.20
2022-10-08T06:12:32.640Z,21.20
2022-10-08T06:14:59.681Z,21.20
2022-10-08T06:17:26.741Z,21.20
2022-10-08T06:19:53.749Z,21.20
2022-10-08T06:22:20.777Z,21.20
2022-10-08T06:24:47.915Z,21.20
2022-10-08T06:27:14.984Z,21.30
2022-10-08T06:29:42.010Z,21.30
2022-10-08T06:32:09.385Z,21.30
2022-10-08T06:34:36.520Z,21.40
2022-10-08T06:37:03.714Z,21.40
2022-10-08T06:39:30.756Z,21.50
2022-10-08T06:41:57.940Z,21.50
2022-10-08T06:44:29.861Z,21.50
2022-10-08T06:46:56.991Z,21.60
2022-10-08T06:49:26.615Z,21.60
2022-10-08T06:51:53.677Z,21.70
2022-10-08T06:54:20.734Z,21.60
2022-10-08T06:56:47.813Z,21.70
2022-10-08T06:59:14.862Z,21.60
2022-10-08T07:01:42.141Z,21.70
2022-10-08T07:04:10.914Z,21.60
2022-10-08T07:06:37.936Z,21.60
2022-10-08T07:09:05.204Z,21.60
2022-10-08T07:11:33.386Z,21.60
2022-10-08T07:14:00.672Z,21.60
2022-10-08T07:16:28.239Z,21.50
2022-10-08T07:18:58.906Z,21.50
2022-10-08T07:21:26.636Z,21.50
2022-10-08T07:23:53.781Z,21.50
2022-10-08T07:26:21.926Z,21.40
2022-10-08T07:28:50.224Z,21.40
2022-10-08T07:31:18.854Z,21.40
2022-10-08T07:33:46.138Z,21.40
2022-10-08T07:36:14.505Z,21.30
2022-10-08T07:38:42.017Z,21.30
2022-10-08T07:41:10.263Z,21.30
2022-10-08T07:43:37.853Z,21.30
2022-10-08T07:46:08.692Z,21.30
2022-10-08T07:48:38.539Z,21.20
2022-10-08T07:51:07.016Z,21.20
2022-10-08T07:53:35.410Z,21.20
2022-10-08T07:56:02.855Z,21.20
2022-10-08T07:58:29.921Z,21.20
2022-10-08T08:01:00.470Z,21.20
2022-10-08T08:03:27.650Z,21.20
2022-10-08T08:05:59.963Z,21.30
2022-10-08T08:08:26.985Z,21.20
2022-10-08T08:10:57.882Z,21.30
2022-10-08T08:13:25.212Z,21.30
2022-10-08T08:15:58.796Z,21.30
2022-10-08T08:18:28.034Z,21.40
2022-10-08T08:21:02.304Z,21.40
2022-10-08T08:23:30.252Z,21.50
2022-10-08T08:25:59.987Z,21.50
2022-10-08T08:28:27.152Z,21.50
2022-10-08T08:30:54.623Z,21.50
2022-10-08T08:33:21.601Z,21.60
2022-10-08T08:35:55.640Z,21.60
2022-10-08T08:38:22.795Z,21.60
2022-10-08T08:40:49.969Z,21.60
2022-10-08T08:43:16.943Z,21.60
2022-10-08T08:45:47.612Z,21.60
2022-10-08T08:48:21.565Z,21.60
2022-10-08T08:50:51.004Z,21.60
2022-10-08T08:53:18.738Z,21.70
2022-10-08T08:55:47.366Z,21.60
2022-10-08T08:58:26.742Z,21.70
2022-10-08T09:01:00.183Z,21.70
2022-10-08T09:03:34.661Z,21.60
2022-10-08T09:06:05.834Z,21.60
2022-10-08T09:08:39.391Z,21.60
2022-10-08T09:11:06.903Z,21.60
2022-10-08T09:13:37.007Z,21.60
2022-10-08T09:16:04.126Z,21.60
2022-10-08T09:18:31.873Z,21.60
2022-10-08T09:20:58.864Z,21.50
2022-10-08T09:23:26.976Z,21.50
2022-10-08T09:26:14.241Z,21.50
2022-10-08T09:28:41.416Z,21.50
2022-10-08T09:31:29.547Z,21.40
2022-10-08T09:34:16.388Z,21.40
2022-10-08T09:36:52.516Z,21.40
2022-10-08T09:39:24.178Z,21.40
2022-10-08T09:42:06.513Z,21.30
2022-10-08T09:44:52.463Z,21.30
2022-10-08T09:47:20.720Z,21.30
2022-10-08T09:50:02.401Z,21.20
2022-10-08T09:52:29.622Z,21.20
2022-10-08T09:55:00.765Z,21.20
2022-10-08T09:57:28.608Z,21.20
2022-10-08T09:59:59.780Z,21.20
2022-10-08T10:02:26.764Z,21.20
2022-10-08T10:04:55.087Z,21.20
2022-10-08T10:07:22.675Z,21.20
2022-10-08T10:09:52.210Z,21.20
2022-10-08T10:12:33.211Z,21.20
2022-10-08T10:15:05.663Z,21.20
2022-10-08T10:17:38.412Z,21.20
2022-10-08T10:20:23.555Z,21.20
2022-10-08T10:22:50.914Z,21.20
2022-10-08T10:25:30.500Z,21.20
2022-10-08T10:28:07.138Z,21.20
2022-10-08T10:30:54.439Z,21.20
2022-10-08T10:33:24.524Z,21.30
2022-10-08T10:35:57.401Z,21.40
2022-10-08T10:38:32.254Z,21.40
2022-10-08T10:41:05.268Z,21.40
2022-10-08T10:43:39.463Z,21.50
2022-10-08T10:46:09.687Z,21.50
2022-10-08T10:48:36.822Z,21.60
2022-10-08T10:51:09.714Z,21.60
2022-10-08T10:53:45.297Z,21.60
2022-10-08T10:56:12.378Z,21.60
2022-10-08T10:58:39.461Z,21.60
2022-10-08T11:01:15.934Z,21.60
2022-10-08T11:03:49.149Z,21.60
2022-10-08T11:06:28.529Z,21.50
2022-10-08T11:09:00.169Z,21.50
2022-10-08T11:11:40.899Z,21.50
2022-10-08T11:14:26.537Z,21.50
2022-10-08T11:17:21.888Z,21.50
2022-10-08T11:19:58.440Z,21.50
2022-10-08T11:22:34.663Z,21.40
2022-10-08T11:25:01.738Z,21.40
2022-10-08T11:27:42.425Z,21.40
2022-10-08T11:30:12.113Z,21.40
2022-10-08T11:32:40.374Z,21.40
2022-10-08T11:35:26.397Z,21.40
2022-10-08T11:38:04.526Z,21.40
2022-10-08T11:40:42.726Z,21.40
2022-10-08T11:43:30.816Z,21.30
2022-10-08T11:46:21.163Z,21.30
2022-10-08T11:48:48.983Z,21.30
2022-10-08T11:51:18.956Z,21.30
2022-10-08T11:54:04.945Z,21.20
2022-10-08T11:56:33.423Z,21.20
2022-10-08T11:59:03.536Z,21.20
2022-10-08T12:01:30.622Z,21.20
2022-10-08T12:04:01.872Z,21.20
2022-10-08T12:06:30.502Z,21.20
2022-10-08T12:08:57.505Z,21.30
2022-10-08T12:11:39.771Z,21.30
2022-10-08T12:14:27.124Z,21.30
2022-10-08T12:16:57.386Z,21.40
2022-10-08T12:19:33.865Z,21.40
2022-10-08T12:22:24.990Z,21.50
2022-10-08T12:24:53.422Z,21.50
2022-10-08T12:27:20.965Z,21.50
2022-10-08T12:29:57.249Z,21.60
2022-10-08T12:32:28.621Z,21.60
2022-10-08T12:34:56.378Z,21.60
2022-10-08T12:37:23.582Z,21.60
2022-10-08T12:39:52.023Z,21.60
2022-10-08T12:42:24.249Z,21.60
2022-10-08T12:45:06.714Z,21.60
2022-10-08T12:47:40.504Z,21.60
2022-10-08T12:50:26.420Z,21.60
2022-10-08T12:52:53.640Z,21.60
2022-10-08T12:55:22.705Z,21.60
2022-10-08T12:57:50.978Z,21.60
2022-10-08T13:00:18.258Z,21.60
2022-10-08T13:02:57.538Z,21.50
2022-10-08T13:05:27.559Z,21.50
2022-10-08T13:07:54.845Z,21.50
2022-10-08T13:10:24.041Z,21.50
2022-10-08T13:13:00.185Z,21.50
2022-10-08T13:15:27.518Z,21.50
2022-10-08T13:17:54.547Z,21.60
2022-10-08T13:20:22.748Z,21.60
2022-10-08T13:22:50.247Z,21.60
2022-10-08T13:25:32.769Z,21.60
2022-10-08T13:28:10.708Z,21.60
2022-10-08T13:30:38.305Z,21.60
2022-10-08T13:33:09.984Z,21.60
2022-10-08T13:35:37.216Z,21.70
2022-10-08T13:38:06.978Z,21.70
2022-10-08T13:40:34.243Z,21.60
2022-10-08T13:43:01.562Z,21.70
2022-10-08T13:45:30.290Z,21.60
2022-10-08T13:47:58.992Z,21.60
2022-10-08T13:50:26.023Z,21.50
2022-10-08T13:52:55.550Z,21.50
2022-10-08T13:55:26.609Z,21.50
2022-10-08T13:57:54.417Z,21.40
2022-10-08T14:00:22.444Z,21.40
2022-10-08T14:02:51.547Z,21.40
2022-10-08T14:05:19.577Z,21.40
2022-10-08T14:07:48.376Z,21.40
2022-10-08T14:10:18.082Z,21.40
2022-10-08T14:12:45.327Z,21.40
2022-10-08T14:15:17.541Z,21.40
2022-10-08T14:17:44.998Z,21.40
2022-10-08T14:20:12.596Z,21.40
2022-10-08T14:22:39.910Z,21.40
2022-10-08T14:25:16.025Z,21.50
2022-10-08T14:27:43.215Z,21.40
2022-10-08T14:30:11.315Z,21.50
2022-10-08T14:32:38.526Z,21.50
2022-10-08T14:35:06.639Z,21.60
2022-10-08T14:37:34.456Z,21.60
2022-10-08T14:40:02.185Z,21.60
2022-10-08T14:42:29.301Z,21.60
2022-10-08T14:44:56.587Z,21.60
2022-10-08T14:47:23.808Z,21.60
2022-10-08T14:49:51.065Z,21.70
2022-10-08T14:52:20.381Z,21.70
2022-10-08T14:54:47.529Z,21.70
2022-10-08T14:57:14.753Z,21.70
2022-10-08T14:59:42.486Z,21.60
2022-10-08T15:02:10.583Z,21.70
2022-10-08T15:04:37.901Z,21.70
2022-10-08T15:07:05.221Z,21.60
2022-10-08T15:09:32.192Z,21.60
2022-10-08T15:11:59.212Z,21.60
2022-10-08T15:14:26.205Z,21.60
2022-10-08T15:16:53.367Z,21.60
2022-10-08T15:19:23.789Z,21.50
2022-10-08T15:21:51.311Z,21.50
2022-10-08T15:24:18.469Z,21.50
2022-10-08T15:26:45.553Z,21.50
2022-10-08T15:29:12.546Z,21.50
2022-10-08T15:31:39.642Z,21.50
2022-10-08T15:34:06.820Z,21.40
2022-10-08T15:36:36.088Z,21.40
2022-10-08T15:39:06.222Z,21.40
2022-10-08T15:41:36.943Z,21.40
2022-10-08T15:44:13.373Z,21.40
2022-10-08T15:46:40.392Z,21.40
2022-10-08T15:49:07.405Z,21.30
2022-10-08T15:51:34.591Z,21.40
2022-10-08T15:54:01.980Z,21.30
2022-10-08T15:56:29.541Z,21.30
2022-10-08T15:58:57.947Z,21.30
2022-10-08T16:01:25.357Z,21.30
2022-10-08T16:03:53.430Z,21.30
2022-10-08T16:06:33.334Z,21.30
2022-10-08T16:09:00.833Z,21.30
2022-10-08T16:11:31.818Z,21.30
2022-10-08T16:14:00.537Z,21.40
2022-10-08T16:16:27.839Z,21.40
2022-10-08T16:18:59.182Z,21.40
2022-10-08T16:21:27.732Z,21.50
2022-10-08T16:23:55.124Z,21.60
2022-10-08T16:26:22.213Z,21.60
2022-10-08T16:28:50.706Z,21.70
2022-10-08T16:31:18.758Z,21.70
2022-10-08T16:33:46.033Z,21.70
2022-10-08T16:36:13.291Z,21.70
2022-10-08T16:38:40.656Z,21.70
2022-10-08T16:41:13.697Z,21.70
2022-10-08T16:43:40.948Z,21.70
2022-10-08T16:46:16.854Z,21.70
2022-10-08T16:48:44.790Z,21.70
2022-10-08T16:51:12.096Z,21.70
2022-10-08T16:53:41.069Z,21.60
2022-10-08T16:56:08.168Z,21.60
2022-10-08T16:58:35.237Z,21.70
2022-10-08T17:01:04.382Z,21.60
2022-10-08T17:03:31.628Z,21.60
2022-10-08T17:05:58.618Z,21.60
2022-10-08T17:08:25.671Z,21.60
2022-10-08T17:10:52.796Z,21.50
2022-10-08T17:13:19.876Z,21.60
2022-10-08T17:15:56.946Z,21.50
2022-10-08T17:18:25.210Z,21.50
2022-10-08T17:20:54.010Z,21.50
2022-10-08T17:23:21.035Z,21.50
2022-10-08T17:25:53.070Z,21.50
2022-10-08T17:28:20.106Z,21.40
2022-10-08T17:30:47.242Z,21.40
2022-10-08T17:33:14.255Z,21.40
2022-10-08T17:35:41.299Z,21.40
2022-10-08T17:38:08.334Z,21.40
2022-10-08T17:40:35.517Z,21.30
2022-10-08T17:43:02.487Z,21.30
2022-10-08T17:45:29.524Z,21.30
2022-10-08T17:47:56.550Z,21.30
2022-10-08T17:50:23.702Z,21.30
2022-10-08T17:52:50.981Z,21.30
2022-10-08T17:55:19.628Z,21.40
2022-10-08T17:57:46.710Z,21.40
2022-10-08T18:00:13.878Z,21.40
2022-10-08T18:02:41.065Z,21.40
2022-10-08T18:05:08.244Z,21.50
2022-10-08T18:07:35.392Z,21.60
2022-10-08T18:10:02.798Z,21.60
2022-10-08T18:12:29.793Z,21.60
2022-10-08T18:14:57.034Z,21.70
2022-10-08T18:17:24.178Z,21.70
2022-10-08T18:19:51.261Z,21.70
2022-10-08T18:22:21.985Z,21.80
2022-10-08T18:24:49.831Z,21.80
2022-10-08T18:27:16.832Z,21.70
2022-10-08T18:29:43.826Z,21.80
2022-10-08T18:32:10.899Z,21.80
2022-10-08T18:34:37.954Z,21.70
2022-10-08T18:37:05.009Z,21.70
2022-10-08T18:39:32.009Z,21.70
2022-10-08T18:41:59.012Z,21.70
2022-10-08T18:44:26.276Z,21.60
2022-10-08T18:46:53.433Z,21.60
2022-10-08T18:49:23.826Z,21.60
2022-10-08T18:51:50.940Z,21.60
2022-10-08T18:54:18.038Z,21.60
2022-10-08T18:56:45.093Z,21.60
2022-10-08T18:59:13.385Z,21.60
2022-10-08T19:01:42.064Z,21.50
2022-10-08T19:04:11.881Z,21.50
2022-10-08T19:06:39.742Z,21.50
2022-10-08T19:09:06.981Z,21.50
2022-10-08T19:11:40.602Z,21.40
2022-10-08T19:14:11.637Z,21.40
2022-10-08T19:16:39.327Z,21.40
2022-10-08T19:19:09.417Z,21.40
2022-10-08T19:21:38.728Z,21.40
2022-10-08T19:24:06.717Z,21.40
2022-10-08T19:26:33.913Z,21.30
2022-10-08T19:29:01.038Z,21.30
2022-10-08T19:31:32.606Z,21.30
2022-10-08T19:34:01.541Z,21.30
2022-10-08T19:36:29.733Z,21.30
2022-10-08T19:38:57.891Z,21.30
2022-10-08T19:41:25.256Z,21.30
2022-10-08T19:43:52.796Z,21.30
2022-10-08T19:46:20.452Z,21.30
2022-10-08T19:48:48.960Z,21.40
2022-10-08T19:51:16.470Z,21.40
2022-10-08T19:53:43.488Z,21.40
2022-10-08T19:56:11.257Z,21.40
2022-10-08T19:58:38.952Z,21.40
2022-10-08T20:01:07.745Z,21.30
2022-10-08T20:03:35.429Z,21.30
2022-10-08T20:06:06.305Z,21.30
2022-10-08T20:08:33.648Z,21.30
2022-10-08T20:11:08.086Z,21.30
2022-10-08T20:13:35.152Z,21.30
2022-10-08T20:16:06.463Z,21.20
2022-10-08T20:18:33.730Z,21.20
2022-10-08T20:21:01.884Z,21.20
2022-10-08T20:23:29.103Z,21.20
2022-10-08T20:26:06.334Z,21.20
2022-10-08T20:28:33.664Z,21.10
2022-10-08T20:31:10.892Z,21.10
2022-10-08T20:33:40.677Z,21.10
2022-10-08T20:36:08.741Z,21.10
2022-10-08T20:38:35.840Z,21.10
2022-10-08T20:41:03.026Z,21.00
2022-10-08T20:43:30.966Z,21.00
2022-10-08T20:46:00.556Z,21.00
2022-10-08T20:48:27.590Z,21.00
2022-10-08T20:50:54.658Z,21.00
2022-10-08T20:53:21.802Z,21.00
2022-10-08T20:55:48.788Z,21.00
2022-10-08T20:58:15.798Z,20.90
2022-10-08T21:00:43.034Z,20.90
2022-10-08T21:03:10.081Z,20.90
2022-10-08T21:05:42.958Z,20.90
2022-10-08T21:08:10.217Z,20.90
2022-10-08T21:10:37.359Z,20.90
2022-10-08T21:13:04.536Z,20.90
2022-10-08T21:15:31.556Z,20.80
2022-10-08T21:17:58.625Z,20.80
2022-10-08T21:20:25.673Z,20.80
2022-10-08T21:22:52.938Z,20.80
2022-10-08T21:25:20.522Z,20.80
2022-10-08T21:27:47.577Z,20.80
2022-10-08T21:30:14.578Z,20.70
2022-10-08T21:32:41.701Z,20.70
2022-10-08T21:35:08.904Z,20.70
2022-10-08T21:37:36.031Z,20.70
2022-10-08T21:40:03.760Z,20.70
2022-10-08T21:42:30.773Z,20.70
2022-10-08T21:44:58.781Z,20.70
2022-10-08T21:47:25.857Z,20.70
2022-10-08T21:49:52.928Z,20.70
2022-10-08T21:52:19.991Z,20.70
2022-10-08T21:54:47.035Z,20.60
2022-10-08T21:57:16.349Z,20.60
2022-10-08T21:59:43.760Z,20.60
2022-10-08T22:02:10.912Z,20.60
2022-10-08T22:04:38.003Z,20.60
2022-10-08T22:07:05.348Z,20.60
2022-10-08T22:09:34.387Z,20.60
2022-10-08T22:12:01.782Z,20.60
2022-10-08T22:14:29.127Z,20.60
2022-10-08T22:16:56.672Z,20.50
2022-10-08T22:19:23.867Z,20.50
2022-10-08T22:21:50.948Z,20.50
2022-10-08T22:24:17.948Z,20.50
2022-10-08T22:26:46.295Z,20.50
2022-10-08T22:29:14.082Z,20.50
2022-10-08T22:31:41.226Z,20.50
2022-10-08T22:34:08.339Z,20.50
2022-10-08T22:36:37.792Z,20.50
2022-10-08T22:39:04.849Z,20.50
2022-10-08T22:41:32.274Z,20.50
2022-10-08T22:43:59.613Z,20.40
2022-10-08T22:46:27.929Z,20.40
2022-10-08T22:48:58.937Z,20.40
2022-10-08T22:51:26.125Z,20.40
2022-10-08T22:53:53.418Z,20.40
2022-10-08T22:56:21.898Z,20.40
2022-10-08T22:58:49.394Z,20.40
2022-10-08T23:01:18.186Z,20.30
2022-10-08T23:03:45.507Z,20.30
2022-10-08T23:06:23.974Z,20.30
2022-10-08T23:09:00.576Z,20.30
2022-10-08T23:11:28.192Z,20.30
2022-10-08T23:13:56.159Z,20.30
2022-10-08T23:16:23.836Z,20.30
2022-10-08T23:18:57.915Z,20.30
2022-10-08T23:21:25.333Z,20.30
2022-10-08T23:23:53.686Z,20.30
2022-10-08T23:26:21.208Z,20.20
2022-10-08T23:28:52.350Z,20.30
2022-10-08T23:31:20.678Z,20.30
2022-10-08T23:33:48.636Z,20.30
2022-10-08T23:36:18.161Z,20.20
2022-10-08T23:38:45.552Z,20.20
2022-10-08T23:41:12.937Z,20.20
2022-10-08T23:43:44.146Z,20.20
2022-10-08T23:46:12.565Z,20.20
2022-10-08T23:48:40.091Z,20.20
2022-10-08T23:51:07.957Z,20.20
2022-10-08T23:53:35.523Z,20.20
2022-10-08T23:56:02.616Z,20.20
2022-10-08T23:58:29.649Z,20.20
